createdAt,value
2018-11-12T00:01:08.048Z,67.77
2018-11-12T00:03:40.358Z,59.33
2018-11-12T00:06:10.921Z,64.63
2018-11-12T00:08:40.765Z,65.57
2018-11-12T00:11:10.872Z,59.47
2018-11-12T00:13:40.550Z,63.97
2018-11-12T00:16:13.285Z,64.30
2018-11-12T00:18:43.181Z,60.87
2018-11-12T00:21:14.166Z,65.30
2018-11-12T00:23:44.835Z,64.20
2018-11-12T00:26:15.150Z,60.90
2018-11-12T00:28:45.911Z,128.70
2018-11-12T00:31:18.388Z,101.27
2018-11-12T00:33:50.529Z,74.13
2018-11-12T00:36:23.214Z,69.03
2018-11-12T00:38:55.759Z,62.73
2018-11-12T00:41:27.653Z,65.67
2018-11-12T00:43:59.634Z,72.67
2018-11-12T00:46:31.021Z,62.27
2018-11-12T00:49:02.851Z,62.03
2018-11-12T00:51:35.474Z,65.07
2018-11-12T00:54:05.998Z,62.70
2018-11-12T00:56:37.279Z,70.63
2018-11-12T00:59:10.567Z,71.93
2018-11-12T01:01:44.374Z,67.83
2018-11-12T01:04:18.056Z,70.70
2018-11-12T01:06:50.399Z,64.17
2018-11-12T01:09:21.646Z,67.60
2018-11-12T01:11:54.369Z,63.50
2018-11-12T01:14:29.550Z,64.57
2018-11-12T01:17:02.021Z,61.27
2018-11-12T01:19:32.679Z,56.33
2018-11-12T01:22:11.544Z,63.67
2018-11-12T01:24:42.695Z,62.87
2018-11-12T01:27:13.509Z,63.67
2018-11-12T01:29:44.112Z,60.10
2018-11-12T01:32:14.238Z,63.17
2018-11-12T01:34:44.765Z,66.77
2018-11-12T01:37:16.012Z,64.83
2018-11-12T01:39:46.564Z,67.50
2018-11-12T01:42:16.334Z,54.73
2018-11-12T01:44:48.103Z,61.40
2018-11-12T01:47:18.198Z,65.90
2018-11-12T01:49:48.414Z,60.97
2018-11-12T01:52:20.206Z,64.53
2018-11-12T01:54:50.802Z,61.10
2018-11-12T01:57:24.333Z,69.40
2018-11-12T01:59:56.985Z,59.60
2018-11-12T02:02:31.789Z,61.77
2018-11-12T02:05:03.610Z,64.53
2018-11-12T02:07:35.986Z,65.97
2018-11-12T02:10:08.702Z,57.30
2018-11-12T02:12:41.754Z,64.47
2018-11-12T02:15:15.565Z,66.17
2018-11-12T02:17:48.134Z,61.27
2018-11-12T02:20:19.359Z,59.30
2018-11-12T02:22:51.974Z,60.37
2018-11-12T02:25:22.846Z,59.97
2018-11-12T02:27:55.998Z,65.30
2018-11-12T02:30:32.502Z,67.23
2018-11-12T02:33:05.544Z,63.33
2018-11-12T02:35:36.630Z,67.63
2018-11-12T02:38:09.708Z,70.43
2018-11-12T02:40:40.539Z,69.03
2018-11-12T02:43:12.273Z,69.30
2018-11-12T02:45:45.924Z,73.47
2018-11-12T02:48:19.925Z,73.13
2018-11-12T02:50:53.280Z,63.00
2018-11-12T02:53:25.611Z,72.30
2018-11-12T02:55:57.925Z,73.47
2018-11-12T02:58:30.148Z,69.73
2018-11-12T03:01:01.616Z,65.80
2018-11-12T03:03:31.587Z,71.87
2018-11-12T03:06:02.058Z,69.17
2018-11-12T03:08:34.115Z,76.63
2018-11-12T03:11:04.627Z,78.30
2018-11-12T03:13:35.829Z,71.93
2018-11-12T03:16:07.738Z,72.20
2018-11-12T03:18:39.005Z,73.87
2018-11-12T03:21:09.285Z,65.10
2018-11-12T03:23:39.868Z,76.93
2018-11-12T03:26:11.201Z,72.90
2018-11-12T03:28:43.108Z,67.07
2018-11-12T03:31:14.751Z,81.43
2018-11-12T03:33:46.645Z,73.97
2018-11-12T03:36:17.999Z,79.90
2018-11-12T03:38:52.362Z,80.37
2018-11-12T03:41:25.906Z,72.00
2018-11-12T03:43:58.815Z,82.40
2018-11-12T03:46:29.069Z,69.70
2018-11-12T03:49:00.056Z,77.80
2018-11-12T03:51:31.068Z,81.37
2018-11-12T03:54:04.593Z,76.60
2018-11-12T03:56:35.785Z,84.17
2018-11-12T03:59:10.060Z,83.67
2018-11-12T04:01:44.876Z,84.03
2018-11-12T04:04:16.658Z,87.87
2018-11-12T04:06:47.249Z,83.13
2018-11-12T04:09:17.992Z,84.87
2018-11-12T04:11:49.946Z,93.27
2018-11-12T04:14:20.892Z,94.23
2018-11-12T04:16:51.413Z,86.70
2018-11-12T04:19:22.410Z,84.07
2018-11-12T04:21:53.561Z,87.73
2018-11-12T04:24:26.742Z,93.23
2018-11-12T04:26:58.274Z,87.20
2018-11-12T04:29:29.347Z,80.07
2018-11-12T04:32:04.840Z,86.90
2018-11-12T04:34:38.145Z,86.30
2018-11-12T04:37:09.407Z,79.00
2018-11-12T04:39:42.388Z,84.37
2018-11-12T04:42:13.930Z,78.53
2018-11-12T04:44:43.524Z,79.40
2018-11-12T04:47:14.070Z,89.33
2018-11-12T04:49:45.638Z,87.10
2018-11-12T04:52:15.408Z,79.43
2018-11-12T04:54:45.525Z,80.80
2018-11-12T04:57:17.157Z,90.50
2018-11-12T04:59:47.964Z,89.47
2018-11-12T05:02:20.080Z,85.20
2018-11-12T05:04:51.244Z,86.00
2018-11-12T05:07:22.834Z,84.23
2018-11-12T05:09:55.097Z,89.80
2018-11-12T05:12:26.153Z,90.77
2018-11-12T05:14:57.699Z,86.07
2018-11-12T05:17:31.077Z,94.00
2018-11-12T05:20:02.467Z,87.73
2018-11-12T05:22:34.852Z,103.17
2018-11-12T05:25:06.969Z,106.30
2018-11-12T05:27:39.332Z,98.60
2018-11-12T05:30:24.017Z,98.87
2018-11-12T05:32:56.287Z,96.70
2018-11-12T05:35:30.983Z,92.00
2018-11-12T05:38:02.988Z,102.27
2018-11-12T05:40:34.856Z,100.30
2018-11-12T05:43:07.213Z,97.13
2018-11-12T05:45:38.898Z,99.47
2018-11-12T05:48:12.480Z,101.90
2018-11-12T05:50:43.723Z,100.20
2018-11-12T05:53:15.949Z,98.40
2018-11-12T05:55:45.850Z,104.90
2018-11-12T05:58:16.915Z,95.60
2018-11-12T06:00:48.984Z,105.77
2018-11-12T06:03:22.347Z,103.80
2018-11-12T06:05:56.511Z,107.80
2018-11-12T06:08:27.761Z,118.20
2018-11-12T06:10:57.319Z,128.73
2018-11-12T06:13:30.336Z,118.47
2018-11-12T06:16:03.482Z,104.07
2018-11-12T06:18:33.531Z,114.50
2018-11-12T06:21:05.841Z,122.60
2018-11-12T06:23:36.750Z,117.57
2018-11-12T06:26:09.217Z,113.57
2018-11-12T06:28:41.559Z,121.57
2018-11-12T06:31:11.427Z,113.80
2018-11-12T06:33:42.496Z,110.40
2018-11-12T06:36:13.834Z,107.37
2018-11-12T06:38:47.358Z,115.97
2018-11-12T06:41:17.905Z,115.97
2018-11-12T06:43:48.177Z,112.10
2018-11-12T06:46:18.892Z,120.43
2018-11-12T06:48:50.166Z,120.80
2018-11-12T06:51:22.312Z,128.80
2018-11-12T06:53:54.632Z,120.80
2018-11-12T06:56:25.226Z,126.67
2018-11-12T06:58:56.901Z,118.73
2018-11-12T07:01:27.666Z,126.57
2018-11-12T07:03:59.451Z,110.97
2018-11-12T07:06:29.585Z,117.30
2018-11-12T07:09:00.822Z,112.03
2018-11-12T07:11:33.221Z,118.43
2018-11-12T07:14:05.116Z,99.90
2018-11-12T07:16:35.737Z,121.63
2018-11-12T07:19:07.337Z,135.27
2018-11-12T07:21:46.702Z,122.47
2018-11-12T07:24:19.823Z,124.80
2018-11-12T07:26:50.566Z,122.50
2018-11-12T07:29:23.211Z,138.00
2018-11-12T07:31:57.566Z,135.30
2018-11-12T07:34:29.136Z,127.77
2018-11-12T07:37:00.765Z,123.00
2018-11-12T07:39:32.555Z,115.87
2018-11-12T07:42:04.403Z,123.23
2018-11-12T07:44:37.703Z,118.40
2018-11-12T07:47:08.961Z,123.83
2018-11-12T07:49:42.419Z,138.63
2018-11-12T07:52:14.269Z,125.50
2018-11-12T07:54:45.101Z,129.40
2018-11-12T07:57:15.215Z,110.23
2018-11-12T07:59:46.618Z,130.13
2018-11-12T08:02:17.203Z,138.50
2018-11-12T08:04:48.559Z,112.30
2018-11-12T08:07:19.346Z,121.87
2018-11-12T08:09:51.451Z,139.70
2018-11-12T08:12:23.912Z,148.37
2018-11-12T08:14:56.868Z,139.47
2018-11-12T08:17:31.608Z,118.67
2018-11-12T08:20:07.452Z,105.20
2018-11-12T08:22:37.315Z,99.40
2018-11-12T08:25:08.884Z,106.27
2018-11-12T08:27:42.314Z,104.77
2018-11-12T08:30:18.933Z,113.07
2018-11-12T08:32:53.808Z,94.83
2018-11-12T08:35:30.208Z,105.23
2018-11-12T08:38:05.518Z,91.83
2018-11-12T08:40:38.148Z,91.93
2018-11-12T08:43:08.778Z,99.17
2018-11-12T08:45:40.885Z,99.87
2018-11-12T08:48:12.210Z,98.00
2018-11-12T08:50:43.046Z,89.13
2018-11-12T08:53:14.217Z,93.23
2018-11-12T08:55:44.392Z,87.23
2018-11-12T08:58:17.543Z,89.20
2018-11-12T09:00:49.285Z,87.80
2018-11-12T09:03:21.121Z,84.20
2018-11-12T09:05:53.321Z,83.40
2018-11-12T09:08:24.663Z,78.80
2018-11-12T09:10:57.662Z,83.70
2018-11-12T09:13:28.571Z,73.27
2018-11-12T09:16:00.444Z,77.67
2018-11-12T09:18:30.972Z,74.90
2018-11-12T09:21:06.559Z,74.53
2018-11-12T09:23:37.223Z,65.10
2018-11-12T09:26:08.389Z,67.73
2018-11-12T09:28:39.031Z,60.37
2018-11-12T09:31:10.587Z,72.03
2018-11-12T09:33:39.975Z,68.33
2018-11-12T09:36:11.304Z,76.43
2018-11-12T09:38:43.382Z,73.27
2018-11-12T09:41:15.238Z,84.53
2018-11-12T09:43:47.253Z,73.70
2018-11-12T09:46:18.229Z,70.43
2018-11-12T09:48:51.798Z,68.67
2018-11-12T09:51:22.113Z,68.53
2018-11-12T09:53:58.468Z,62.00
2018-11-12T09:56:28.504Z,70.90
2018-11-12T09:58:59.692Z,64.77
2018-11-12T10:01:31.162Z,56.70
2018-11-12T10:04:01.799Z,95.30
2018-11-12T10:06:32.874Z,132.73
2018-11-12T10:09:04.817Z,122.83
2018-11-12T10:11:35.813Z,100.53
2018-11-12T10:14:08.732Z,85.60
2018-11-12T10:16:43.078Z,73.40
2018-11-12T10:19:14.326Z,63.33
2018-11-12T10:21:47.487Z,62.63
2018-11-12T10:24:20.081Z,58.53
2018-11-12T10:26:51.954Z,79.20
2018-11-12T10:29:28.358Z,126.00
2018-11-12T10:31:59.522Z,95.57
2018-11-12T10:34:31.236Z,70.93
2018-11-12T10:37:04.708Z,64.33
2018-11-12T10:39:36.702Z,67.00
2018-11-12T10:42:08.664Z,111.00
2018-11-12T10:44:40.026Z,92.30
2018-11-12T10:47:12.023Z,82.33
2018-11-12T10:49:45.057Z,70.30
2018-11-12T10:52:17.932Z,68.57
2018-11-12T10:54:48.654Z,61.23
2018-11-12T10:57:19.339Z,58.10
2018-11-12T10:59:52.543Z,65.33
2018-11-12T11:02:27.555Z,112.27
2018-11-12T11:05:00.221Z,125.00
2018-11-12T11:07:32.835Z,120.17
2018-11-12T11:10:02.778Z,83.53
2018-11-12T11:12:33.627Z,66.20
2018-11-12T11:15:05.005Z,59.80
2018-11-12T11:17:37.912Z,75.93
2018-11-12T11:20:08.127Z,71.87
2018-11-12T11:22:38.036Z,93.80
2018-11-12T11:25:08.693Z,95.50
2018-11-12T11:27:40.384Z,82.90
2018-11-12T11:30:14.581Z,70.30
2018-11-12T11:32:46.871Z,75.30
2018-11-12T11:35:20.424Z,72.23
2018-11-12T11:37:54.308Z,79.67
2018-11-12T11:40:27.557Z,150.50
2018-11-12T11:43:00.442Z,156.87
2018-11-12T11:45:31.895Z,136.07
2018-11-12T11:48:05.020Z,112.60
2018-11-12T11:50:37.512Z,94.03
2018-11-12T11:53:08.033Z,93.13
2018-11-12T11:55:38.270Z,89.20
2018-11-12T11:58:07.844Z,84.23
2018-11-12T12:00:41.669Z,76.03
2018-11-12T12:03:14.640Z,93.47
2018-11-12T12:05:47.891Z,77.60
2018-11-12T12:08:20.189Z,77.43
2018-11-12T12:10:51.425Z,71.67
2018-11-12T12:13:23.149Z,65.83
2018-11-12T12:15:55.510Z,72.37
2018-11-12T12:18:26.865Z,82.13
2018-11-12T12:20:57.474Z,99.20
2018-11-12T12:23:29.554Z,87.30
2018-11-12T12:26:00.406Z,83.67
2018-11-12T12:28:31.832Z,70.20
2018-11-12T12:31:07.780Z,63.37
2018-11-12T12:33:44.352Z,63.27
2018-11-12T12:36:15.227Z,110.07
2018-11-12T12:38:49.610Z,111.33
2018-11-12T12:41:24.100Z,99.73
2018-11-12T12:43:55.774Z,86.60
2018-11-12T12:46:33.161Z,77.93
2018-11-12T12:49:04.286Z,69.67
2018-11-12T12:51:35.439Z,71.10
2018-11-12T12:54:06.506Z,57.90
2018-11-12T12:56:37.308Z,64.47
2018-11-12T12:59:09.740Z,62.07
2018-11-12T13:01:42.492Z,63.70
2018-11-12T13:04:13.487Z,68.83
2018-11-12T13:06:44.982Z,68.73
2018-11-12T13:09:17.905Z,70.23
2018-11-12T13:11:50.088Z,60.73
2018-11-12T13:14:22.597Z,73.33
2018-11-12T13:16:54.477Z,70.87
2018-11-12T13:19:26.668Z,80.87
2018-11-12T13:21:57.598Z,74.53
2018-11-12T13:24:29.268Z,72.53
2018-11-12T13:26:59.849Z,68.57
2018-11-12T13:29:38.335Z,72.73
2018-11-12T13:32:08.722Z,82.07
2018-11-12T13:34:39.105Z,68.90
2018-11-12T13:37:09.726Z,63.50
2018-11-12T13:39:39.603Z,58.60
2018-11-12T13:42:10.517Z,61.00
2018-11-12T13:44:42.983Z,63.10
2018-11-12T13:47:15.821Z,59.80
2018-11-12T13:49:47.624Z,62.13
2018-11-12T13:52:18.097Z,67.97
2018-11-12T13:54:48.847Z,56.13
2018-11-12T13:57:19.691Z,53.30
2018-11-12T13:59:49.496Z,57.07
2018-11-12T14:02:19.760Z,59.60
2018-11-12T14:04:50.592Z,52.20
2018-11-12T14:07:20.670Z,53.67
2018-11-12T14:09:51.449Z,60.10
2018-11-12T14:12:21.515Z,59.40
2018-11-12T14:14:52.052Z,53.90
2018-11-12T14:17:22.382Z,49.33
2018-11-12T14:19:52.671Z,53.80
2018-11-12T14:22:23.586Z,52.37
2018-11-12T14:24:56.775Z,50.83
2018-11-12T14:27:27.675Z,49.97
2018-11-12T14:29:57.552Z,51.90
2018-11-12T14:32:31.276Z,52.20
2018-11-12T14:35:04.228Z,49.40
2018-11-12T14:37:36.093Z,63.10
2018-11-12T14:40:10.512Z,55.40
2018-11-12T14:42:43.066Z,43.23
2018-11-12T14:45:16.159Z,45.33
2018-11-12T14:47:47.540Z,47.73
2018-11-12T14:50:20.821Z,45.97
2018-11-12T14:52:50.645Z,42.63
2018-11-12T14:55:20.921Z,46.03
2018-11-12T14:57:51.935Z,46.10
2018-11-12T15:00:25.395Z,43.10
2018-11-12T15:02:56.261Z,47.70
2018-11-12T15:05:34.121Z,51.80
2018-11-12T15:08:06.990Z,48.50
2018-11-12T15:10:40.712Z,94.53
2018-11-12T15:13:11.178Z,61.70
2018-11-12T15:15:43.046Z,49.83
2018-11-12T15:18:14.963Z,54.40
2018-11-12T15:20:47.969Z,44.90
2018-11-12T15:23:20.154Z,50.27
2018-11-12T15:25:51.598Z,47.53
2018-11-12T15:28:22.311Z,50.73
2018-11-12T15:30:52.483Z,51.10
2018-11-12T15:33:22.204Z,54.20
2018-11-12T15:35:54.541Z,64.70
2018-11-12T15:38:24.382Z,56.40
2018-11-12T15:40:55.716Z,53.77
2018-11-12T15:43:29.051Z,64.87
2018-11-12T15:46:01.660Z,78.83
2018-11-12T15:48:36.373Z,64.33
2018-11-12T15:51:11.397Z,63.80
2018-11-12T15:53:43.120Z,63.57
2018-11-12T15:56:15.656Z,60.60
2018-11-12T15:58:49.285Z,57.33
2018-11-12T16:01:20.648Z,57.13
2018-11-12T16:03:54.008Z,59.43
2018-11-12T16:06:30.624Z,56.80
2018-11-12T16:15:56.782Z,48.30
2018-11-12T16:18:29.852Z,52.63
2018-11-12T16:20:59.972Z,51.10
2018-11-12T16:23:31.960Z,51.80
2018-11-12T16:26:03.898Z,56.00
2018-11-12T16:28:35.071Z,53.07
2018-11-12T16:31:04.965Z,53.93
2018-11-12T16:33:35.568Z,52.23
2018-11-12T16:36:06.291Z,54.43
2018-11-12T16:38:36.631Z,49.60
2018-11-12T16:41:07.451Z,54.70
2018-11-12T16:43:37.294Z,61.40
2018-11-12T16:46:09.094Z,56.77
2018-11-12T16:48:38.883Z,52.93
2018-11-12T16:51:09.193Z,50.73
2018-11-12T16:53:39.448Z,57.07
2018-11-12T16:56:10.193Z,55.07
2018-11-12T16:58:40.767Z,50.73
2018-11-12T17:01:11.810Z,49.37
2018-11-12T17:03:41.420Z,51.80
2018-11-12T17:06:12.137Z,50.53
2018-11-12T17:08:42.066Z,47.40
2018-11-12T17:11:12.826Z,50.90
2018-11-12T17:13:43.089Z,44.07
2018-11-12T17:16:14.074Z,49.90
2018-11-12T17:18:44.036Z,52.30
2018-11-12T17:21:14.927Z,44.20
2018-11-12T17:23:44.876Z,45.97
2018-11-12T17:26:20.013Z,45.27
2018-11-12T17:28:52.846Z,46.23
2018-11-12T17:31:23.558Z,45.00
2018-11-12T17:33:55.542Z,46.23
2018-11-12T17:36:26.780Z,45.90
2018-11-12T17:38:56.543Z,49.60
2018-11-12T17:41:30.361Z,51.07
2018-11-12T17:44:01.121Z,48.20
2018-11-12T17:46:31.497Z,47.07
2018-11-12T17:49:04.858Z,45.90
2018-11-12T17:51:34.507Z,45.53
2018-11-12T17:54:06.918Z,51.67
2018-11-12T17:56:37.312Z,48.07
2018-11-12T17:59:07.584Z,43.83
2018-11-12T18:01:38.993Z,51.57
2018-11-12T18:04:08.834Z,41.90
2018-11-12T18:06:39.307Z,49.00
2018-11-12T18:09:11.378Z,51.70
2018-11-12T18:11:44.777Z,52.03
2018-11-12T18:14:15.283Z,47.53
2018-11-12T18:16:48.274Z,49.17
2018-11-12T18:19:21.649Z,49.23
2018-11-12T18:21:52.715Z,67.13
2018-11-12T18:24:24.721Z,69.03
2018-11-12T18:26:57.784Z,69.00
2018-11-12T18:29:29.442Z,62.67
2018-11-12T18:32:00.531Z,60.10
2018-11-12T18:34:30.252Z,59.73
2018-11-12T18:37:00.272Z,61.03
2018-11-12T18:39:29.817Z,55.77
2018-11-12T18:42:01.205Z,50.23
2018-11-12T18:44:31.622Z,50.90
2018-11-12T18:47:02.008Z,54.90
2018-11-12T18:49:32.278Z,50.50
2018-11-12T18:52:02.407Z,52.67
2018-11-12T18:54:32.630Z,53.83
2018-11-12T18:57:03.040Z,56.90
2018-11-12T18:59:33.677Z,55.07
2018-11-12T19:02:04.547Z,52.63
2018-11-12T19:04:34.391Z,50.43
2018-11-12T19:07:04.997Z,52.13
2018-11-12T19:09:37.072Z,49.23
2018-11-12T19:12:11.525Z,52.40
2018-11-12T19:14:43.937Z,47.63
2018-11-12T19:17:16.684Z,56.30
2018-11-12T19:19:49.019Z,52.90
2018-11-12T19:22:20.058Z,61.50
2018-11-12T19:24:49.995Z,59.40
2018-11-12T19:27:21.031Z,59.17
2018-11-12T19:29:51.947Z,59.10
2018-11-12T19:32:21.999Z,58.50
2018-11-12T19:34:53.035Z,65.30
2018-11-12T19:37:23.827Z,57.97
2018-11-12T19:39:54.175Z,60.60
2018-11-12T19:42:24.160Z,67.20
2018-11-12T19:44:56.117Z,63.37
2018-11-12T19:47:32.713Z,61.53
2018-11-12T19:50:04.721Z,67.33
2018-11-12T19:52:35.255Z,62.17
2018-11-12T19:55:06.939Z,60.00
2018-11-12T19:57:39.232Z,65.87
2018-11-12T20:00:15.322Z,69.60
2018-11-12T20:02:46.991Z,64.67
2018-11-12T20:05:16.892Z,67.10
2018-11-12T20:07:47.093Z,73.50
2018-11-12T20:10:19.098Z,63.90
2018-11-12T20:12:49.666Z,75.03
2018-11-12T20:15:22.906Z,69.57
2018-11-12T20:17:55.970Z,70.27
2018-11-12T20:20:30.731Z,77.97
2018-11-12T20:23:02.519Z,62.40
2018-11-12T20:25:32.264Z,65.17
2018-11-12T20:28:03.169Z,61.10
2018-11-12T20:30:35.506Z,67.93
2018-11-12T20:33:06.826Z,70.07
2018-11-12T20:35:37.488Z,58.63
2018-11-12T20:38:07.971Z,68.77
2018-11-12T20:40:38.633Z,64.30
2018-11-12T20:43:09.745Z,63.47
2018-11-12T20:45:39.336Z,60.20
2018-11-12T20:48:14.237Z,57.57
2018-11-12T20:50:47.704Z,74.50
2018-11-12T20:53:17.903Z,67.00
2018-11-12T20:55:51.744Z,57.83
2018-11-12T20:58:21.627Z,68.50
2018-11-12T21:00:51.464Z,67.90
2018-11-12T21:03:22.946Z,68.70
2018-11-12T21:05:54.887Z,54.23
2018-11-12T21:08:27.386Z,53.60
2018-11-12T21:10:57.685Z,54.30
2018-11-12T21:13:30.256Z,52.03
2018-11-12T21:16:00.129Z,54.40
2018-11-12T21:18:31.009Z,58.93
2018-11-12T21:21:01.778Z,55.93
2018-11-12T21:23:34.229Z,56.63
2018-11-12T21:26:06.607Z,56.87
2018-11-12T21:28:36.561Z,56.83
2018-11-12T21:31:13.380Z,57.67
2018-11-12T21:33:43.925Z,49.30
2018-11-12T21:36:14.703Z,53.23
2018-11-12T21:38:45.765Z,49.93
2018-11-12T21:41:16.117Z,49.23
2018-11-12T21:43:51.815Z,49.60
2018-11-12T21:46:23.181Z,52.00
2018-11-12T21:48:53.958Z,51.17
2018-11-12T21:51:23.651Z,49.27
2018-11-12T21:53:53.857Z,51.63
2018-11-12T21:56:24.811Z,44.63
2018-11-12T21:58:54.936Z,50.90
2018-11-12T22:01:26.249Z,51.63
2018-11-12T22:03:56.670Z,57.60
2018-11-12T22:06:26.965Z,55.33
2018-11-12T22:08:58.058Z,57.40
2018-11-12T22:11:29.574Z,50.47
2018-11-12T22:14:03.376Z,47.63
2018-11-12T22:16:36.027Z,52.90
2018-11-12T22:19:07.108Z,58.07
2018-11-12T22:21:38.169Z,53.73
2018-11-12T22:24:07.908Z,48.70
2018-11-12T22:26:38.928Z,50.77
2018-11-12T22:29:08.996Z,50.30
2018-11-12T22:31:40.905Z,50.10
2018-11-12T22:34:11.186Z,50.67
2018-11-12T22:36:41.827Z,48.17
2018-11-12T22:39:14.194Z,55.70
2018-11-12T22:41:44.167Z,45.83
2018-11-12T22:44:14.168Z,49.07
2018-11-12T22:46:46.598Z,53.90
2018-11-12T22:49:20.018Z,52.93
2018-11-12T22:51:52.778Z,49.13
2018-11-12T22:54:22.904Z,48.80
2018-11-12T22:56:52.899Z,50.80
2018-11-12T22:59:23.311Z,51.07
2018-11-12T23:01:53.566Z,45.93
2018-11-12T23:04:25.273Z,40.27
2018-11-12T23:06:55.019Z,43.97
2018-11-12T23:09:25.844Z,48.33
2018-11-12T23:11:56.261Z,50.37
2018-11-12T23:14:26.781Z,49.70
2018-11-12T23:16:57.258Z,45.83
2018-11-12T23:19:27.664Z,43.03
2018-11-12T23:21:58.935Z,44.03
2018-11-12T23:24:30.229Z,47.77
2018-11-12T23:27:01.480Z,49.37
2018-11-12T23:29:33.121Z,46.90
2018-11-12T23:32:05.345Z,54.57
2018-11-12T23:34:37.263Z,49.43
2018-11-12T23:37:08.847Z,46.53
2018-11-12T23:39:42.300Z,50.50
2018-11-12T23:42:13.204Z,50.87
2018-11-12T23:44:43.570Z,47.10
2018-11-12T23:47:13.412Z,49.63
2018-11-12T23:49:44.566Z,50.23
2018-11-12T23:52:15.054Z,48.20
2018-11-12T23:54:45.497Z,51.43
2018-11-12T23:57:15.220Z,54.87
2018-11-12T23:59:46.561Z,47.80
